Time;durP1;ratioP1;P1;durP2;ratioP2;P2;SDS_P1;SDS_P2;PMS_P1;PMS_P2;Temp;Humidity;BMP_temperature;BMP_pressure;BME280_temperature;BME280_humidity;BME280_pressure;Samples;Min_cycle;Max_cycle;Signal;HPM_P1;HPM_P2
2021/04/21 00:06:40;;;;;;;2.88;1.85;;;15.40;62.10;;;;;;20754502;28;20034;-49
2021/04/21 00:16:41;;;;;;;3.70;1.50;;;15.20;62.00;;;;;;20752882;28;20042;-49
2021/04/21 00:26:46;;;;;;;2.10;1.58;;;15.20;62.10;;;;;;20753515;28;20033;-48
2021/04/21 00:36:51;;;;;;;2.67;1.80;;;15.20;61.90;;;;;;20752710;28;20091;-49
2021/04/21 00:47:00;;;;;;;2.50;1.70;;;15.10;61.80;;;;;;20751743;28;20022;-49
2021/04/21 00:57:22;;;;;;;2.47;1.45;;;14.90;62.00;;;;;;20750848;28;20443;-50
2021/04/21 01:07:27;;;;;;;2.75;1.33;;;14.90;61.80;;;;;;20750518;28;20076;-50
2021/04/21 01:17:28;;;;;;;;;;;14.70;62.00;;;;;;20750102;28;20116;-50
2021/04/21 01:27:52;;;;;;;2.45;1.50;;;14.70;61.80;;;;;;20749079;28;19913;-48
2021/04/21 01:37:58;;;;;;;2.83;2.08;;;14.70;61.30;;;;;;20419860;29;20051;-49
2021/04/21 01:48:02;;;;;;;3.28;1.50;;;14.40;61.60;;;;;;20419107;29;20534;-49
2021/04/21 01:58:32;;;;;;;2.42;1.60;;;14.40;61.40;;;;;;20418734;29;20608;-49
2021/04/21 02:09:02;;;;;;;2.35;1.45;;;14.40;62.10;;;;;;20500197;28;20384;-49
2021/04/21 02:19:12;;;;;;;2.47;1.67;;;14.40;62.20;;;;;;20728307;28;20041;-49
2021/04/21 02:29:25;;;;;;;2.45;1.23;;;14.40;62.00;;;;;;20746443;28;20081;-49
2021/04/21 02:39:41;;;;;;;2.45;1.65;;;14.30;62.10;;;;;;20755376;28;20053;-48
2021/04/21 02:49:42;;;;;;;2.60;1.75;;;14.10;62.70;;;;;;20760966;28;20038;-49
2021/04/21 03:00:10;;;;;;;2.67;1.83;;;14.00;63.00;;;;;;20758423;28;20109;-48
2021/04/21 03:10:15;;;;;;;2.53;1.60;;;14.00;63.10;;;;;;20759311;28;20073;-50
2021/04/21 03:20:19;;;;;;;2.17;1.30;;;13.90;62.90;;;;;;20739980;28;20120;-52
2021/04/21 03:30:24;;;;;;;2.50;1.70;;;13.90;63.20;;;;;;20757559;28;20053;-49
2021/04/21 03:40:24;;;;;;;;;;;14.00;63.10;;;;;;20757271;28;20022;-49
2021/04/21 03:50:26;;;;;;;1.98;1.40;;;13.70;63.40;;;;;;20755741;28;20349;-48
2021/04/21 04:00:29;;;;;;;2.38;1.33;;;13.50;64.20;;;;;;20755412;28;20537;-50
2021/04/21 04:10:34;;;;;;;4.07;1.92;;;13.30;64.90;;;;;;20754965;28;20394;-49
2021/04/21 04:20:36;;;;;;;2.38;1.77;;;13.50;64.20;;;;;;20753747;28;20029;-48
2021/04/21 04:30:41;;;;;;;3.28;1.75;;;13.40;64.40;;;;;;20751709;28;20045;-49
2021/04/21 04:40:43;;;;;;;3.58;2.25;;;13.30;64.60;;;;;;20752305;28;20037;-48
2021/04/21 04:50:47;;;;;;;3.97;2.03;;;13.30;64.40;;;;;;20750478;28;20053;-48
2021/04/21 05:00:49;;;;;;;3.63;2.50;;;13.20;64.60;;;;;;20749953;28;20045;-49
2021/04/21 05:11:04;;;;;;;4.45;2.28;;;13.00;65.40;;;;;;20750496;28;20081;-49
2021/04/21 05:21:08;;;;;;;;;;;13.00;65.60;;;;;;20749721;28;20026;-48
2021/04/21 05:31:56;;;;;;;5.43;2.25;;;12.80;65.50;;;;;;20748994;28;19960;-48
2021/04/21 05:42:14;;;;;;;4.82;2.00;;;13.10;64.60;;;;;;20748480;28;20462;-49
2021/04/21 05:52:45;;;;;;;4.10;2.30;;;13.20;63.80;;;;;;20747778;28;20052;-47
2021/04/21 06:02:47;;;;;;;3.85;2.20;;;13.30;63.20;;;;;;20747308;28;20438;-48
2021/04/21 06:12:51;;;;;;;4.18;2.40;;;13.30;63.20;;;;;;20756232;28;20066;-48
2021/04/21 06:23:03;;;;;;;5.40;3.15;;;13.30;62.80;;;;;;20762975;28;20022;-49
2021/04/21 06:33:07;;;;;;;6.68;3.58;;;13.30;62.70;;;;;;20762067;28;20125;-49
2021/04/21 06:43:07;;;;;;;5.90;3.30;;;13.50;62.30;;;;;;20761693;28;20026;-49
2021/04/21 06:53:11;;;;;;;8.38;2.88;;;13.60;62.00;;;;;;20760840;28;20030;-47
2021/04/21 07:03:19;;;;;;;6.03;3.50;;;13.80;61.50;;;;;;20693516;28;20046;-48
2021/04/21 07:13:24;;;;;;;6.75;3.53;;;14.20;60.00;;;;;;20678263;28;20034;-49
2021/04/21 07:23:26;;;;;;;9.65;3.53;;;14.60;58.60;;;;;;20676667;28;20026;-49
2021/04/21 07:33:44;;;;;;;6.40;2.50;;;14.70;57.80;;;;;;20676738;28;20121;-49
2021/04/21 07:43:46;;;;;;;4.18;2.38;;;15.40;55.40;;;;;;20674618;28;20530;-47
2021/04/21 07:53:48;;;;;;;3.15;1.80;;;15.90;53.70;;;;;;20675114;28;20034;-49
2021/04/21 08:03:49;;;;;;;9.98;5.10;;;16.40;52.20;;;;;;20744189;28;20413;-48
2021/04/21 08:13:50;;;;;;;5.50;2.15;;;16.80;51.00;;;;;;20754533;28;20401;-50
2021/04/21 08:24:09;;;;;;;3.38;1.77;;;17.00;50.70;;;;;;20751660;28;20463;-49
2021/04/21 08:34:10;;;;;;;4.38;1.67;;;17.80;49.90;;;;;;20751838;28;20392;-48
2021/04/21 08:44:11;;;;;;;5.75;1.90;;;18.00;48.20;;;;;;20745429;28;20041;-48
2021/04/21 08:54:12;;;;;;;5.22;1.92;;;18.00;48.50;;;;;;20749088;28;20189;-49
2021/04/21 09:04:15;;;;;;;2.72;1.95;;;18.10;48.10;;;;;;20822290;28;20073;-49
2021/04/21 09:14:16;;;;;;;2.70;1.83;;;18.30;47.50;;;;;;20830765;28;20049;-46
2021/04/21 09:24:27;;;;;;;5.03;2.13;;;18.30;48.10;;;;;;20829867;28;20477;-47
2021/04/21 09:34:27;;;;;;;4.13;2.30;;;18.30;47.80;;;;;;20821971;28;20046;-49
2021/04/21 09:44:29;;;;;;;7.75;2.85;;;18.50;47.50;;;;;;20747346;28;20034;-48
2021/04/21 09:54:33;;;;;;;2.90;2.25;;;18.30;47.80;;;;;;20747564;28;20081;-48
2021/04/21 10:04:33;;;;;;;3.40;2.27;;;18.00;48.30;;;;;;20745800;28;20046;-48
2021/04/21 10:14:34;;;;;;;5.45;2.60;;;18.20;47.70;;;;;;20745701;28;20164;-48
2021/04/21 10:24:35;;;;;;;4.20;3.10;;;18.30;48.30;;;;;;20760939;28;20037;-50
2021/04/21 10:34:37;;;;;;;4.68;2.80;;;18.70;47.90;;;;;;20745747;28;20474;-47
2021/04/21 10:44:43;;;;;;;4.07;2.45;;;19.20;45.60;;;;;;20745846;28;20065;-49
2021/04/21 10:54:50;;;;;;;7.30;3.65;;;19.30;45.90;;;;;;20746594;28;20482;-49
2021/04/21 11:05:08;;;;;;;99.55;12.98;;;19.30;45.90;;;;;;20839625;28;20160;-50
2021/04/21 11:15:10;;;;;;;12.32;4.15;;;19.50;45.60;;;;;;20842058;28;20575;-49
2021/04/21 11:25:29;;;;;;;5.90;2.70;;;19.30;45.60;;;;;;20841182;28;20375;-50
2021/04/21 11:35:32;;;;;;;5.68;2.38;;;19.50;43.30;;;;;;20763304;28;20038;-50
2021/04/21 11:45:37;;;;;;;8.77;3.10;;;19.40;43.50;;;;;;20754631;28;20494;-46
2021/04/21 11:55:56;;;;;;;5.97;3.20;;;19.70;43.30;;;;;;20775615;28;20406;-52
2021/04/21 12:06:01;;;;;;;4.43;3.00;;;19.60;43.50;;;;;;20754590;28;20022;-48
2021/04/21 12:16:12;;;;;;;5.18;2.90;;;19.60;43.10;;;;;;20754808;28;20042;-50
2021/04/21 12:26:29;;;;;;;5.03;2.75;;;19.80;42.00;;;;;;20754737;28;20064;-49
2021/04/21 12:36:36;;;;;;;5.63;2.65;;;20.00;42.60;;;;;;20753280;28;20117;-50
2021/04/21 12:46:40;;;;;;;4.60;2.75;;;20.20;42.10;;;;;;20752546;28;20030;-49
2021/04/21 12:56:42;;;;;;;6.22;2.67;;;20.50;41.60;;;;;;20751130;28;20133;-51
2021/04/21 13:06:50;;;;;;;3.70;2.40;;;20.60;41.20;;;;;;20751099;28;20091;-50
2021/04/21 13:16:52;;;;;;;2.83;1.52;;;20.70;41.30;;;;;;20751485;28;20037;-50
2021/04/21 13:26:57;;;;;;;3.08;1.70;;;20.80;39.80;;;;;;20749095;28;20022;-48
2021/04/21 13:36:59;;;;;;;2.38;1.65;;;21.00;38.70;;;;;;20749409;28;20113;-50
2021/04/21 13:47:00;;;;;;;4.68;1.77;;;20.80;39.10;;;;;;20714132;28;20139;-50
2021/04/21 13:57:01;;;;;;;15.45;11.23;;;21.00;39.40;;;;;;20747557;28;20077;-50
2021/04/21 14:07:02;;;;;;;5.28;2.90;;;20.90;39.60;;;;;;20747866;28;20026;-51
2021/04/21 14:17:03;;;;;;;3.53;1.55;;;21.00;39.60;;;;;;20747769;28;20109;-51
2021/04/21 14:27:04;;;;;;;5.07;2.22;;;20.80;39.60;;;;;;20747135;28;20030;-49
2021/04/21 14:37:05;;;;;;;4.32;1.50;;;20.90;39.10;;;;;;20757663;28;20038;-50
2021/04/21 14:47:06;;;;;;;4.25;2.38;;;21.00;39.50;;;;;;20762391;28;20104;-50
2021/04/21 14:57:07;;;;;;;1.85;1.02;;;20.90;40.00;;;;;;20759547;28;20092;-49
2021/04/21 15:07:10;;;;;;;4.78;1.38;;;20.70;40.50;;;;;;20760670;28;20050;-49
2021/04/21 15:17:11;;;;;;;5.17;1.77;;;20.60;41.30;;;;;;20757723;28;20061;-46
2021/04/21 15:33:58;;;;;;;4.63;1.30;;;20.40;42.30;;;;;;21135663;27;20438;-46
2021/04/21 15:44:00;;;;;;;3.22;1.23;;;20.10;43.10;;;;;;21076932;27;20074;-47
2021/04/21 15:54:03;;;;;;;3.57;1.20;;;19.90;43.10;;;;;;21057629;28;20048;-48
2021/04/21 16:04:05;;;;;;;3.67;1.30;;;19.80;43.20;;;;;;20992181;28;20059;-47
2021/04/21 16:14:09;;;;;;;3.28;1.40;;;19.90;43.10;;;;;;20979834;28;20498;-48
2021/04/21 16:24:11;;;;;;;6.43;1.42;;;20.00;44.30;;;;;;20978618;28;20052;-49
2021/04/21 16:34:13;;;;;;;9.55;1.55;;;19.40;47.60;;;;;;20978657;28;20044;-50
2021/04/21 16:44:15;;;;;;;3.35;1.20;;;18.90;49.50;;;;;;20941098;28;20056;-46
2021/04/21 16:54:18;;;;;;;2.35;1.20;;;18.80;49.50;;;;;;20923331;28;20057;-46
2021/04/21 17:04:20;;;;;;;3.42;1.00;;;18.70;49.40;;;;;;20922722;28;20057;-49
2021/04/21 17:14:22;;;;;;;3.45;1.55;;;18.70;48.60;;;;;;20922463;28;20540;-48
2021/04/21 17:24:24;;;;;;;3.70;1.10;;;18.90;48.00;;;;;;20919936;28;20057;-50
2021/04/21 17:34:27;;;;;;;2.60;1.00;;;19.00;45.30;;;;;;20919926;28;20053;-47
2021/04/21 17:44:30;;;;;;;3.55;1.10;;;18.80;44.90;;;;;;20994127;28;20052;-47
2021/04/21 17:54:32;;;;;;;2.50;1.10;;;18.80;44.20;;;;;;20998795;28;20057;-48
2021/04/21 18:04:35;;;;;;;3.38;1.40;;;18.80;45.20;;;;;;20999143;28;20078;-45
2021/04/21 18:14:43;;;;;;;2.70;1.00;;;18.50;45.00;;;;;;20998448;28;20060;-50
2021/04/21 18:24:45;;;;;;;20.65;3.65;;;18.40;45.10;;;;;;20997783;28;20049;-51
2021/04/21 18:34:50;;;;;;;5.90;2.20;;;18.30;46.80;;;;;;20979043;28;20048;-46
2021/04/21 18:44:54;;;;;;;9.75;2.45;;;18.40;45.70;;;;;;20943293;28;20052;-49
2021/04/21 18:54:55;;;;;;;3.47;1.30;;;18.20;46.00;;;;;;20983589;28;20047;-50
2021/04/21 19:04:57;;;;;;;2.47;1.30;;;18.20;46.00;;;;;;20947465;28;20051;-49
2021/04/21 19:14:59;;;;;;;2.30;1.10;;;18.10;46.10;;;;;;20928856;28;20455;-50
2021/04/21 19:25:04;;;;;;;3.83;1.27;;;17.70;46.70;;;;;;20912064;28;20528;-51
2021/04/21 19:35:07;;;;;;;4.38;1.25;;;17.30;47.20;;;;;;20912633;28;20094;-50
2021/04/21 19:45:12;;;;;;;3.10;1.50;;;17.10;47.50;;;;;;20912004;28;20106;-49
2021/04/21 19:55:22;;;;;;;2.30;1.35;;;17.00;47.90;;;;;;20911383;28;20076;-50
2021/04/21 20:05:23;;;;;;;1.95;1.10;;;16.90;47.50;;;;;;20912804;28;20080;-50
2021/04/21 20:15:26;;;;;;;2.85;1.15;;;16.70;47.90;;;;;;20917871;28;20049;-49
2021/04/21 20:25:27;;;;;;;2.60;1.20;;;16.60;47.90;;;;;;20925728;28;20148;-51
2021/04/21 20:35:30;;;;;;;1.75;1.00;;;16.50;48.50;;;;;;20925196;28;20053;-50
2021/04/21 20:45:38;;;;;;;2.65;1.00;;;16.40;49.00;;;;;;20924865;28;20053;-50
2021/04/21 20:55:40;;;;;;;5.97;2.03;;;16.30;49.50;;;;;;20924639;28;20087;-50
2021/04/21 21:05:42;;;;;;;2.72;1.30;;;16.20;50.10;;;;;;20924687;28;20053;-50
2021/04/21 21:15:44;;;;;;;2.45;0.90;;;16.10;50.80;;;;;;20922819;28;20045;-50
2021/04/21 21:25:46;;;;;;;1.95;0.93;;;15.90;50.90;;;;;;20921377;28;20059;-51
2021/04/21 21:35:48;;;;;;;3.22;1.85;;;15.80;51.40;;;;;;20921803;28;20057;-49
2021/04/21 21:45:51;;;;;;;2.92;1.55;;;15.70;52.00;;;;;;20920561;28;20493;-50
2021/04/21 21:55:52;;;;;;;2.85;1.50;;;15.70;51.90;;;;;;20918779;28;20098;-49
2021/04/21 22:05:54;;;;;;;2.17;1.30;;;15.60;52.70;;;;;;20918464;28;20056;-50
2021/04/21 22:15:55;;;;;;;3.13;1.73;;;15.50;53.60;;;;;;20918116;28;20048;-50
2021/04/21 22:25:57;;;;;;;1.90;1.20;;;15.40;54.00;;;;;;20916321;28;20114;-48
2021/04/21 22:36:00;;;;;;;1.98;1.10;;;15.40;54.20;;;;;;20915834;28;20056;-48
2021/04/21 22:46:02;;;;;;;2.65;1.13;;;15.40;54.70;;;;;;20915496;28;20055;-50
2021/04/21 22:56:03;;;;;;;2.17;1.02;;;15.20;55.40;;;;;;20915569;28;20056;-49
2021/04/21 23:06:05;;;;;;;2.88;1.17;;;15.20;55.50;;;;;;20928572;28;20151;-51
2021/04/21 23:16:07;;;;;;;2.17;1.17;;;15.20;56.20;;;;;;20913703;28;20485;-50
2021/04/21 23:26:09;;;;;;;4.68;1.75;;;15.10;57.10;;;;;;20913180;28;20129;-48
2021/04/21 23:36:11;;;;;;;5.75;3.08;;;15.00;58.60;;;;;;20913075;28;20053;-49
2021/04/21 23:46:12;;;;;;;3.75;2.25;;;14.90;59.10;;;;;;20913130;28;20059;-49
2021/04/21 23:56:14;;;;;;;2.20;1.45;;;14.80;60.10;;;;;;20929291;28;20461;-49
